Time;durP1;ratioP1;P1;durP2;ratioP2;P2;SDS_P1;SDS_P2;PMS_P1;PMS_P2;Temp;Humidity;BMP_temperature;BMP_pressure;BME280_temperature;BME280_humidity;BME280_pressure;Samples;Min_cycle;Max_cycle;Signal;HPM_P1;HPM_P2
2022/02/06 00:00:42;;;;;;;;;;;0.20;99.90;;;;;;5091776;28;19928;-53
2022/02/06 00:03:09;;;;;;;;;;;0.10;99.90;;;;;;5091245;28;20310;-54
2022/02/06 00:05:36;;;;;;;;;;;0.10;99.90;;;;;;5091546;28;20439;-51
2022/02/06 00:08:07;;;;;;;;;;;-0.10;99.90;;;;;;5091296;28;19924;-51
2022/02/06 00:10:35;;;;;;;;;;;-0.20;99.90;;;;;;5091666;28;19924;-51
2022/02/06 00:13:02;;;;;;;;;;;-0.20;99.90;;;;;;5091693;28;19924;-51
2022/02/06 00:15:29;;;;;;;;;;;-0.20;99.90;;;;;;5091754;28;19924;-51
2022/02/06 00:17:56;;;;;;;;;;;-0.20;99.90;;;;;;5091269;28;19928;-53
2022/02/06 00:20:25;;;;;;;;;;;-0.20;99.90;;;;;;5091523;28;19927;-52
2022/02/06 00:22:55;;;;;;;;;;;-0.30;99.90;;;;;;5091670;28;20042;-54
2022/02/06 00:25:29;;;;;;;;;;;-0.40;99.90;;;;;;5091561;28;19925;-54
2022/02/06 00:28:09;;;;;;;;;;;-0.40;99.90;;;;;;5091748;28;20006;-51
2022/02/06 00:30:40;;;;;;;;;;;-0.40;99.90;;;;;;5091064;28;19928;-54
2022/02/06 00:33:12;;;;;;;;;;;-0.40;99.90;;;;;;5091288;28;19971;-52
2022/02/06 00:35:55;;;;;;;;;;;-0.50;99.90;;;;;;5090316;28;19924;-52
2022/02/06 00:38:27;;;;;;;;;;;-0.40;99.90;;;;;;5091330;28;19924;-53
2022/02/06 00:41:14;;;;;;;;;;;-0.40;99.90;;;;;;5093969;28;19923;-53
2022/02/06 00:43:43;;;;;;;;;;;-0.40;99.90;;;;;;5095382;28;19924;-52
2022/02/06 00:46:12;;;;;;;;;;;-0.40;99.90;;;;;;5095513;28;19932;-53
2022/02/06 00:48:42;;;;;;;;;;;-0.50;99.90;;;;;;5114464;22;21718;-50
2022/02/06 00:51:13;;;;;;;;;;;-0.60;99.90;;;;;;5072790;28;19924;-51
2022/02/06 00:53:41;;;;;;;;;;;-0.70;99.90;;;;;;5072966;28;19998;-50
2022/02/06 00:56:08;;;;;;;;;;;-0.70;99.90;;;;;;5072696;28;19943;-50
2022/02/06 00:58:35;;;;;;;;;;;-0.80;99.90;;;;;;5072456;28;19936;-50
2022/02/06 01:01:03;;;;;;;;;;;-0.90;99.90;;;;;;5073371;28;19925;-50
2022/02/06 01:03:30;;;;;;;;;;;-1.00;99.90;;;;;;5072921;28;19932;-51
2022/02/06 01:05:57;;;;;;;;;;;-1.00;99.90;;;;;;5071922;28;19928;-51
2022/02/06 01:08:23;;;;;;;;;;;-1.00;99.90;;;;;;5072444;28;19978;-51
2022/02/06 01:10:51;;;;;;;;;;;-1.10;99.90;;;;;;5072817;28;20335;-51
2022/02/06 01:13:22;;;;;;;;;;;-1.10;99.90;;;;;;5072695;28;19924;-51
2022/02/06 01:15:55;;;;;;;;;;;-1.10;99.90;;;;;;5072568;28;19924;-50
2022/02/06 01:18:32;;;;;;;;;;;-1.10;99.90;;;;;;5072395;28;19925;-51
2022/02/06 01:21:05;;;;;;;;;;;-0.90;99.90;;;;;;5060166;28;20351;-50
2022/02/06 01:23:40;;;;;;;;;;;-1.00;99.90;;;;;;5072308;28;20370;-50
2022/02/06 01:26:17;;;;;;;;;;;-1.00;99.90;;;;;;5072452;28;20338;-51
2022/02/06 01:28:50;;;;;;;;;;;-1.00;99.90;;;;;;5072515;28;20026;-50
2022/02/06 01:31:32;;;;;;;;;;;-0.90;99.90;;;;;;5072624;28;20040;-50
2022/02/06 01:34:02;;;;;;;;;;;-0.60;99.90;;;;;;5072548;28;19924;-50
2022/02/06 01:36:37;;;;;;;;;;;-0.60;99.90;;;;;;5071939;28;19931;-51
2022/02/06 01:39:13;;;;;;;;;;;-0.80;99.90;;;;;;5072144;28;20297;-50
2022/02/06 01:41:42;;;;;;;;;;;-0.80;99.90;;;;;;5072487;28;20477;-51
2022/02/06 01:44:18;;;;;;;;;;;-0.90;99.90;;;;;;5072493;28;19924;-51
2022/02/06 01:46:56;;;;;;;;;;;-0.90;99.90;;;;;;5071884;28;19990;-51
2022/02/06 02:03:11;;;;;;;;;;;-0.70;99.90;;;;;;5071217;28;20019;-50
2022/02/06 02:06:13;;;;;;;;;;;-0.60;99.90;;;;;;5071060;28;19929;-50
2022/02/06 02:09:11;;;;;;;;;;;-0.70;99.90;;;;;;5071316;28;20251;-50
2022/02/06 02:11:51;;;;;;;;;;;-0.70;99.90;;;;;;5071000;28;20275;-51
2022/02/06 02:14:54;;;;;;;;;;;-0.70;99.90;;;;;;5071499;28;19955;-50
2022/02/06 02:17:43;;;;;;;;;;;-0.70;99.90;;;;;;5071313;28;19925;-50
2022/02/06 02:20:36;;;;;;;;;;;-0.60;99.90;;;;;;5070495;28;20034;-50
2022/02/06 02:23:29;;;;;;;;;;;-0.50;99.90;;;;;;5071416;28;19986;-50
2022/02/06 02:26:36;;;;;;;;;;;-0.40;99.90;;;;;;5071067;28;20329;-50
2022/02/06 02:29:33;;;;;;;;;;;-0.50;99.90;;;;;;5051057;28;19964;-49
2022/02/06 02:43:20;;;;;;;;;;;-0.70;99.90;;;;;;5060255;28;19955;-50
2022/02/06 02:46:03;;;;;;;;;;;-0.70;99.90;;;;;;5069520;28;19925;-50
2022/02/06 02:48:30;;;;;;;;;;;-0.80;99.90;;;;;;5070408;28;20402;-50
2022/02/06 02:51:02;;;;;;;;;;;-0.70;99.90;;;;;;5054203;28;19982;-50
2022/02/06 02:53:33;;;;;;;;;;;-0.70;99.90;;;;;;5050914;28;20413;-49
2022/02/06 02:56:14;;;;;;;;;;;-0.80;99.90;;;;;;5051210;28;19925;-50
2022/02/06 02:58:50;;;;;;;;;;;-0.90;99.90;;;;;;5055283;28;19986;-51
2022/02/06 03:01:25;;;;;;;;;;;-1.00;99.90;;;;;;5071096;28;19929;-50
2022/02/06 03:03:52;;;;;;;;;;;-1.10;99.90;;;;;;5069078;28;19978;-50
2022/02/06 03:06:19;;;;;;;;;;;-1.20;99.90;;;;;;5069131;28;19998;-51
2022/02/06 03:08:47;;;;;;;;;;;-1.20;99.90;;;;;;5070424;28;19924;-50
2022/02/06 03:11:15;;;;;;;;;;;-1.20;99.90;;;;;;5070553;28;20339;-50
2022/02/06 03:13:49;;;;;;;;;;;-1.20;99.90;;;;;;5070243;28;19925;-50
2022/02/06 03:16:21;;;;;;;;;;;-1.00;99.90;;;;;;5068499;28;20325;-49
2022/02/06 03:18:55;;;;;;;;;;;-0.90;99.90;;;;;;5070259;28;19932;-51
2022/02/06 03:21:25;;;;;;;;;;;-0.70;99.90;;;;;;5069181;28;19936;-49
2022/02/06 03:23:54;;;;;;;;;;;-0.70;99.90;;;;;;5050336;28;19932;-50
2022/02/06 03:26:23;;;;;;;;;;;-0.70;99.90;;;;;;5068891;28;19932;-51
2022/02/06 03:28:50;;;;;;;;;;;-0.70;99.90;;;;;;5070080;28;19932;-50
2022/02/06 03:31:17;;;;;;;;;;;-0.80;99.90;;;;;;5070238;28;19992;-51
2022/02/06 03:33:47;;;;;;;;;;;-0.90;99.90;;;;;;5070365;28;19989;-51
2022/02/06 03:36:13;;;;;;;;;;;-1.00;99.90;;;;;;5070067;28;19924;-51
2022/02/06 03:38:40;;;;;;;;;;;-1.10;99.90;;;;;;5062144;28;19986;-51
2022/02/06 03:41:10;;;;;;;;;;;-1.20;99.90;;;;;;5050109;28;19929;-50
2022/02/06 03:43:48;;;;;;;;;;;-1.10;99.90;;;;;;5050047;28;20086;-51
2022/02/06 03:46:20;;;;;;;;;;;-0.90;99.90;;;;;;5050442;28;19925;-51
2022/02/06 03:48:51;;;;;;;;;;;-0.80;99.90;;;;;;5049867;28;20015;-50
2022/02/06 03:51:20;;;;;;;;;;;-0.80;99.90;;;;;;5052077;28;19998;-49
2022/02/06 03:53:48;;;;;;;;;;;-0.80;99.90;;;;;;5069738;28;20031;-50
2022/02/06 03:56:16;;;;;;;;;;;-0.90;99.90;;;;;;5051126;28;20283;-49
2022/02/06 03:58:44;;;;;;;;;;;-0.90;99.90;;;;;;5049931;28;19925;-51
2022/02/06 04:01:10;;;;;;;;;;;-1.00;99.90;;;;;;5049964;28;20336;-51
2022/02/06 04:03:37;;;;;;;;;;;-1.00;99.90;;;;;;5049453;28;19982;-50
2022/02/06 04:06:04;;;;;;;;;;;-0.90;99.90;;;;;;5057452;28;19925;-50
2022/02/06 04:08:34;;;;;;;;;;;-0.80;99.90;;;;;;5050407;28;19962;-50
2022/02/06 04:11:03;;;;;;;;;;;-0.80;99.90;;;;;;5053206;28;19925;-50
2022/02/06 04:13:33;;;;;;;;;;;-0.70;99.90;;;;;;5067995;28;19930;-50
2022/02/06 04:16:03;;;;;;;;;;;-0.90;99.90;;;;;;5063125;28;19964;-50
2022/02/06 04:18:40;;;;;;;;;;;-1.10;99.90;;;;;;5048653;28;19928;-50
2022/02/06 04:21:06;;;;;;;;;;;-1.20;99.90;;;;;;5048502;28;19925;-50
2022/02/06 04:23:33;;;;;;;;;;;-1.40;99.90;;;;;;5048698;28;20611;-50
2022/02/06 04:26:00;;;;;;;;;;;-1.40;99.90;;;;;;5062445;28;19929;-50
2022/02/06 04:28:27;;;;;;;;;;;-1.50;99.90;;;;;;5057066;28;19984;-51
2022/02/06 04:30:54;;;;;;;;;;;-1.40;99.90;;;;;;5053478;28;19929;-50
2022/02/06 04:33:22;;;;;;;;;;;-1.40;99.90;;;;;;5048816;28;20310;-49
2022/02/06 04:35:52;;;;;;;;;;;-1.40;99.90;;;;;;5048612;28;19925;-50
2022/02/06 04:38:38;;;;;;;;;;;-1.40;99.90;;;;;;5048314;28;19932;-50
2022/02/06 04:41:15;;;;;;;;;;;-1.20;99.90;;;;;;5054491;28;19932;-50
2022/02/06 04:44:06;;;;;;;;;;;-1.00;99.90;;;;;;5067412;28;20027;-49
2022/02/06 04:47:13;;;;;;;;;;;-0.90;99.90;;;;;;5067224;28;20009;-50
2022/02/06 04:52:53;;;;;;;;;;;-0.90;99.90;;;;;;5067192;28;19925;-50
2022/02/06 05:12:26;;;;;;;;;;;-0.30;99.90;;;;;;5065074;28;19927;-50
2022/02/06 05:17:40;;;;;;;;;;;0.10;99.90;;;;;;5046302;28;20266;-50
2022/02/06 05:23:14;;;;;;;;;;;0.40;99.90;;;;;;5052655;28;20004;-50
2022/02/06 05:26:02;;;;;;;;;;;0.30;99.90;;;;;;5048113;28;19932;-50
2022/02/06 05:28:39;;;;;;;;;;;0.30;99.90;;;;;;5055062;28;19997;-49
2022/02/06 05:31:09;;;;;;;;;;;0.30;99.90;;;;;;5070046;28;19925;-50
2022/02/06 05:33:36;;;;;;;;;;;0.30;99.90;;;;;;5070207;28;19990;-50
2022/02/06 05:36:04;;;;;;;;;;;0.20;99.90;;;;;;5051295;28;19937;-49
2022/02/06 05:38:32;;;;;;;;;;;0.20;99.90;;;;;;5052151;28;19924;-51
2022/02/06 05:40:58;;;;;;;;;;;0.20;99.90;;;;;;5055497;28;19963;-50
2022/02/06 05:43:25;;;;;;;;;;;0.10;99.90;;;;;;5051550;28;19963;-50
2022/02/06 05:45:52;;;;;;;;;;;0.00;99.90;;;;;;5055748;28;19944;-49
2022/02/06 05:48:22;;;;;;;;;;;0.00;99.90;;;;;;5052486;28;20024;-50
2022/02/06 05:50:49;;;;;;;;;;;0.00;99.90;;;;;;5053281;28;19924;-49
2022/02/06 05:53:16;;;;;;;;;;;0.10;99.90;;;;;;5051621;28;20502;-51
2022/02/06 05:55:45;;;;;;;;;;;0.10;99.90;;;;;;5054394;28;19932;-50
2022/02/06 05:58:13;;;;;;;;;;;0.10;99.90;;;;;;5065249;28;20253;-51
2022/02/06 06:00:40;;;;;;;;;;;0.20;99.90;;;;;;5051620;28;19924;-50
2022/02/06 06:03:08;;;;;;;;;;;0.30;99.90;;;;;;5063831;28;19978;-50
2022/02/06 06:05:34;;;;;;;;;;;0.30;99.90;;;;;;5071294;28;19924;-51
2022/02/06 06:08:01;;;;;;;;;;;0.30;99.90;;;;;;5070838;28;19925;-51
2022/02/06 06:10:28;;;;;;;;;;;0.40;99.90;;;;;;5059477;28;19992;-50
2022/02/06 06:12:57;;;;;;;;;;;0.40;99.90;;;;;;5059089;28;20301;-51
2022/02/06 06:15:24;;;;;;;;;;;0.40;99.90;;;;;;5067227;28;19975;-51
2022/02/06 06:17:50;;;;;;;;;;;0.40;99.90;;;;;;5053217;28;19925;-50
2022/02/06 06:20:19;;;;;;;;;;;0.50;99.90;;;;;;5050419;28;19924;-50
2022/02/06 06:22:47;;;;;;;;;;;0.50;99.90;;;;;;5050458;28;19932;-50
2022/02/06 06:25:14;;;;;;;;;;;0.50;99.90;;;;;;5050686;28;19924;-50
2022/02/06 06:27:41;;;;;;;;;;;0.60;99.90;;;;;;5069619;28;19994;-49
2022/02/06 06:30:10;;;;;;;;;;;0.60;99.90;;;;;;5051021;28;19987;-50
2022/02/06 06:32:36;;;;;;;;;;;0.60;99.90;;;;;;5050420;28;19984;-49
2022/02/06 06:35:05;;;;;;;;;;;0.70;99.90;;;;;;5056880;28;19931;-49
2022/02/06 06:37:32;;;;;;;;;;;0.60;99.90;;;;;;5063477;28;19924;-50
2022/02/06 06:39:59;;;;;;;;;;;0.60;99.90;;;;;;5066938;28;20001;-49
2022/02/06 06:42:26;;;;;;;;;;;0.70;99.90;;;;;;5050018;28;19959;-50
2022/02/06 06:44:52;;;;;;;;;;;0.70;99.90;;;;;;5050388;28;20054;-49
2022/02/06 06:47:21;;;;;;;;;;;0.80;99.90;;;;;;5049788;28;19983;-49
2022/02/06 06:49:47;;;;;;;;;;;0.70;99.90;;;;;;5049203;28;20347;-50
2022/02/06 06:52:14;;;;;;;;;;;0.70;99.90;;;;;;5050053;28;19925;-50
2022/02/06 06:54:45;;;;;;;;;;;0.70;99.90;;;;;;5068346;28;19939;-49
2022/02/06 06:57:17;;;;;;;;;;;0.70;99.90;;;;;;5058248;28;20255;-50
2022/02/06 07:00:20;;;;;;;;;;;0.80;99.90;;;;;;5101084;22;19951;-50
2022/02/06 07:02:50;;;;;;;;;;;0.80;99.90;;;;;;5090494;28;20386;-50
2022/02/06 07:05:17;;;;;;;;;;;0.90;99.90;;;;;;5078195;28;19979;-51
2022/02/06 07:07:43;;;;;;;;;;;0.90;99.90;;;;;;5076466;28;19940;-50
2022/02/06 07:10:10;;;;;;;;;;;0.90;99.90;;;;;;5076406;28;19958;-50
2022/02/06 07:12:37;;;;;;;;;;;0.90;99.90;;;;;;5072775;28;20416;-49
2022/02/06 07:15:04;;;;;;;;;;;0.80;99.90;;;;;;5089157;28;19981;-50
2022/02/06 07:17:31;;;;;;;;;;;0.90;99.90;;;;;;5089184;28;19925;-50
2022/02/06 07:19:59;;;;;;;;;;;0.90;99.90;;;;;;5092149;28;19966;-50
2022/02/06 07:22:25;;;;;;;;;;;1.10;99.90;;;;;;5087454;28;20320;-50
2022/02/06 07:24:54;;;;;;;;;;;1.10;99.90;;;;;;5084840;28;20386;-51
2022/02/06 07:27:25;;;;;;;;;;;1.10;99.90;;;;;;5072049;28;19932;-50
2022/02/06 07:29:52;;;;;;;;;;;1.20;99.90;;;;;;5071596;28;20494;-51
2022/02/06 07:32:19;;;;;;;;;;;1.10;99.90;;;;;;5071892;28;19928;-50
2022/02/06 07:34:46;;;;;;;;;;;1.10;99.90;;;;;;5087397;28;19931;-49
2022/02/06 07:37:14;;;;;;;;;;;1.10;99.90;;;;;;5092305;28;20314;-49
2022/02/06 07:39:41;;;;;;;;;;;1.20;99.90;;;;;;5086226;28;19924;-50
2022/02/06 07:42:09;;;;;;;;;;;1.10;99.90;;;;;;5092063;28;19923;-50
2022/02/06 07:44:37;;;;;;;;;;;1.00;99.90;;;;;;5092216;28;19924;-49
2022/02/06 07:47:13;;;;;;;;;;;1.00;99.90;;;;;;5092388;28;19969;-49
2022/02/06 07:49:40;;;;;;;;;;;1.00;99.90;;;;;;5090785;28;19924;-50
2022/02/06 07:52:07;;;;;;;;;;;0.90;99.90;;;;;;5091988;28;20308;-50
2022/02/06 07:54:35;;;;;;;;;;;1.00;99.90;;;;;;5088982;28;19978;-50
2022/02/06 07:57:04;;;;;;;;;;;1.10;99.90;;;;;;5071609;28;19989;-50
2022/02/06 07:59:31;;;;;;;;;;;1.20;99.90;;;;;;5071007;28;19931;-50
2022/02/06 08:01:58;;;;;;;;;;;1.10;99.90;;;;;;5071656;28;20337;-50
2022/02/06 08:04:24;;;;;;;;;;;1.30;99.90;;;;;;5071732;28;20301;-49
2022/02/06 08:06:51;;;;;;;;;;;1.60;99.90;;;;;;5071443;28;19925;-49
2022/02/06 08:09:23;;;;;;;;;;;1.80;99.90;;;;;;5071179;28;19979;-49
2022/02/06 08:11:51;;;;;;;;;;;1.90;99.90;;;;;;5072759;28;20347;-49
2022/02/06 08:16:58;;;;;;;;;;;1.80;99.90;;;;;;5087096;28;19920;-49
2022/02/06 08:19:25;;;;;;;;;;;2.00;99.90;;;;;;5091224;28;19936;-50
2022/02/06 08:21:52;;;;;;;;;;;2.80;99.90;;;;;;5091320;28;19924;-49
2022/02/06 08:24:18;;;;;;;;;;;3.60;99.90;;;;;;5091463;28;20199;-49
2022/02/06 08:26:45;;;;;;;;;;;3.70;99.90;;;;;;5084914;28;19924;-49
2022/02/06 08:29:13;;;;;;;;;;;3.90;99.90;;;;;;5088618;28;19924;-50
2022/02/06 08:31:40;;;;;;;;;;;4.50;99.90;;;;;;5091699;28;19928;-50
2022/02/06 08:34:07;;;;;;;;;;;4.70;99.90;;;;;;5084051;28;19933;-50
2022/02/06 08:36:33;;;;;;;;;;;4.30;99.90;;;;;;5086312;28;20040;-49
2022/02/06 08:39:00;;;;;;;;;;;3.90;99.90;;;;;;5091210;28;19924;-49
2022/02/06 08:41:27;;;;;;;;;;;3.70;99.90;;;;;;5091688;28;20356;-49
2022/02/06 08:43:54;;;;;;;;;;;3.70;99.90;;;;;;5091000;28;19924;-49
2022/02/06 08:46:22;;;;;;;;;;;4.50;99.90;;;;;;5091619;28;19965;-51
2022/02/06 08:48:48;;;;;;;;;;;5.20;99.90;;;;;;5091153;28;19932;-50
2022/02/06 08:51:15;;;;;;;;;;;5.80;99.90;;;;;;5091670;28;21024;-50
2022/02/06 08:53:42;;;;;;;;;;;6.20;99.90;;;;;;5091468;28;20378;-50
2022/02/06 08:56:09;;;;;;;;;;;7.00;99.90;;;;;;5091301;28;19928;-51
2022/02/06 08:58:35;;;;;;;;;;;7.30;99.90;;;;;;5090992;28;19928;-50
2022/02/06 09:01:03;;;;;;;;;;;7.50;99.90;;;;;;5090525;28;19930;-50
2022/02/06 09:03:31;;;;;;;;;;;7.30;99.90;;;;;;5095024;28;20245;-50
2022/02/06 09:05:58;;;;;;;;;;;7.10;99.90;;;;;;5091098;28;19925;-50
2022/02/06 09:08:25;;;;;;;;;;;7.40;99.90;;;;;;5080311;28;19970;-49
2022/02/06 09:10:52;;;;;;;;;;;7.40;99.90;;;;;;5092939;28;19989;-51
2022/02/06 09:13:19;;;;;;;;;;;7.10;99.90;;;;;;5074617;28;19932;-51
2022/02/06 09:15:46;;;;;;;;;;;6.80;99.90;;;;;;5081198;28;20381;-50
2022/02/06 09:18:12;;;;;;;;;;;6.30;99.90;;;;;;5093309;28;19928;-49
2022/02/06 09:20:41;;;;;;;;;;;6.00;99.90;;;;;;5092025;28;19928;-50
2022/02/06 09:23:07;;;;;;;;;;;5.40;99.90;;;;;;5094503;28;19925;-50
2022/02/06 09:25:34;;;;;;;;;;;5.60;99.90;;;;;;5094223;28;20394;-50
2022/02/06 09:28:02;;;;;;;;;;;6.10;99.90;;;;;;5094122;28;19924;-50
2022/02/06 09:30:29;;;;;;;;;;;6.90;99.90;;;;;;5094314;28;20292;-51
2022/02/06 09:37:50;;;;;;;;;;;8.00;99.90;;;;;;5092337;28;19935;-50
2022/02/06 09:40:17;;;;;;;;;;;9.10;99.90;;;;;;5085260;28;19928;-52
2022/02/06 09:42:48;;;;;;;;;;;10.90;99.60;;;;;;5073983;28;20010;-51
2022/02/06 09:45:15;;;;;;;;;;;12.40;96.80;;;;;;5073930;28;19928;-50
2022/02/06 09:47:43;;;;;;;;;;;13.20;94.50;;;;;;5073767;28;19978;-51
2022/02/06 09:50:10;;;;;;;;;;;13.40;93.10;;;;;;5073624;28;19982;-50
2022/02/06 09:52:39;;;;;;;;;;;12.80;92.30;;;;;;5078179;28;20083;-51
2022/02/06 09:55:12;;;;;;;;;;;11.10;94.90;;;;;;5094236;28;19932;-51
2022/02/06 09:57:50;;;;;;;;;;;11.60;95.90;;;;;;5094013;28;19989;-51
2022/02/06 10:00:17;;;;;;;;;;;12.10;93.30;;;;;;5093738;28;19928;-50
2022/02/06 10:02:47;;;;;;;;;;;12.50;92.00;;;;;;5093956;28;19924;-50
2022/02/06 10:05:14;;;;;;;;;;;12.30;92.30;;;;;;5093734;28;19931;-48
2022/02/06 10:07:44;;;;;;;;;;;12.20;91.20;;;;;;5093920;28;19932;-48
2022/02/06 10:10:13;;;;;;;;;;;11.70;92.20;;;;;;5074410;28;20426;-48
2022/02/06 10:12:41;;;;;;;;;;;12.10;90.50;;;;;;5075492;28;19935;-49
2022/02/06 10:15:10;;;;;;;;;;;12.30;90.30;;;;;;5093115;28;19962;-48
2022/02/06 10:17:37;;;;;;;;;;;11.50;91.00;;;;;;5092957;28;19932;-48
2022/02/06 10:20:12;;;;;;;;;;;10.70;91.30;;;;;;5095877;28;20404;-48
2022/02/06 10:22:42;;;;;;;;;;;10.50;92.50;;;;;;5093668;28;19928;-50
2022/02/06 10:25:10;;;;;;;;;;;10.70;91.60;;;;;;5093061;28;19924;-49
2022/02/06 10:27:55;;;;;;;;;;;11.00;92.60;;;;;;5092967;28;19931;-48
2022/02/06 10:30:36;;;;;;;;;;;11.30;92.30;;;;;;5093118;28;19924;-49
2022/02/06 10:33:04;;;;;;;;;;;11.10;90.80;;;;;;5093704;28;19928;-48
2022/02/06 10:35:34;;;;;;;;;;;10.50;91.70;;;;;;5093428;28;19969;-49
2022/02/06 10:38:03;;;;;;;;;;;9.50;93.10;;;;;;5092854;28;20435;-49
2022/02/06 10:40:29;;;;;;;;;;;9.00;94.50;;;;;;5093127;28;19932;-49
2022/02/06 10:42:58;;;;;;;;;;;8.60;96.00;;;;;;5089617;28;19924;-49
2022/02/06 10:45:26;;;;;;;;;;;8.60;95.70;;;;;;5093192;28;19924;-50
2022/02/06 10:47:54;;;;;;;;;;;9.10;95.80;;;;;;5087756;28;19924;-48
2022/02/06 10:50:24;;;;;;;;;;;9.80;94.80;;;;;;5092284;28;20340;-49
2022/02/06 10:52:51;;;;;;;;;;;9.80;94.80;;;;;;5085500;28;19928;-49
2022/02/06 10:55:19;;;;;;;;;;;9.90;93.30;;;;;;5088518;28;19977;-49
2022/02/06 10:57:56;;;;;;;;;;;9.40;94.20;;;;;;5082458;28;19931;-49
2022/02/06 11:00:27;;;;;;;;;;;9.10;94.60;;;;;;5093139;28;19931;-49
2022/02/06 11:03:01;;;;;;;;;;;9.30;93.20;;;;;;5092547;28;20450;-48
2022/02/06 11:05:35;;;;;;;;;;;8.90;92.70;;;;;;5093036;28;19931;-50
2022/02/06 11:08:03;;;;;;;;;;;8.60;93.90;;;;;;5092288;28;19975;-50
2022/02/06 11:10:31;;;;;;;;;;;8.30;94.20;;;;;;5087651;28;19982;-49
2022/02/06 11:12:59;;;;;;;;;;;8.10;94.10;;;;;;5092259;28;19967;-48
2022/02/06 11:15:30;;;;;;;;;;;8.20;94.30;;;;;;5092281;28;20010;-49
2022/02/06 11:18:04;;;;;;;;;;;8.10;94.50;;;;;;5091961;28;19924;-48
2022/02/06 11:20:31;;;;;;;;;;;8.40;94.30;;;;;;5092294;28;19928;-48
2022/02/06 11:23:02;;;;;;;;;;;8.50;95.30;;;;;;5092213;28;19924;-50
2022/02/06 11:25:29;;;;;;;;;;;8.30;94.50;;;;;;5091233;28;19998;-49
2022/02/06 11:27:56;;;;;;;;;;;8.30;94.70;;;;;;5091797;28;19931;-49
2022/02/06 11:30:23;;;;;;;;;;;7.90;95.90;;;;;;5091959;28;19954;-50
2022/02/06 11:32:52;;;;;;;;;;;7.80;95.30;;;;;;5092125;28;19928;-50
2022/02/06 11:35:22;;;;;;;;;;;7.80;94.80;;;;;;5091237;28;19924;-50
2022/02/06 11:46:28;;;;;;;;;;;7.60;96.80;;;;;;5027800;28;20338;-49
2022/02/06 11:49:06;;;;;;;;;;;7.70;96.00;;;;;;5077743;28;19924;-49
2022/02/06 11:51:33;;;;;;;;;;;7.80;96.10;;;;;;5092025;28;19977;-50
2022/02/06 11:54:19;;;;;;;;;;;7.80;94.50;;;;;;5086648;28;19977;-50
2022/02/06 11:56:49;;;;;;;;;;;7.60;96.70;;;;;;5070668;28;20450;-50
2022/02/06 11:59:16;;;;;;;;;;;7.20;95.40;;;;;;5070979;28;19924;-49
2022/02/06 12:01:43;;;;;;;;;;;7.20;95.60;;;;;;5077930;28;20386;-50
2022/02/06 12:04:20;;;;;;;;;;;7.40;95.40;;;;;;5090676;28;19923;-50
2022/02/06 12:06:51;;;;;;;;;;;7.30;95.80;;;;;;5089970;28;20015;-49
2022/02/06 12:09:19;;;;;;;;;;;7.00;95.80;;;;;;5090467;28;19924;-49
2022/02/06 12:12:08;;;;;;;;;;;6.70;97.40;;;;;;5089665;28;19931;-48
2022/02/06 12:14:38;;;;;;;;;;;6.70;97.00;;;;;;5091546;28;19927;-49
2022/02/06 12:17:14;;;;;;;;;;;6.80;97.10;;;;;;5091574;28;19925;-49
2022/02/06 12:19:43;;;;;;;;;;;6.90;96.90;;;;;;5090944;28;19928;-49
2022/02/06 12:22:28;;;;;;;;;;;6.80;97.90;;;;;;5091305;28;19931;-49
2022/02/06 12:25:17;;;;;;;;;;;7.00;96.70;;;;;;5076019;28;20018;-50
2022/02/06 12:27:43;;;;;;;;;;;7.10;97.20;;;;;;5078522;28;19936;-49
2022/02/06 12:30:19;;;;;;;;;;;7.30;96.50;;;;;;5085567;28;20310;-49
2022/02/06 12:32:46;;;;;;;;;;;7.40;96.30;;;;;;5081908;28;19977;-49
2022/02/06 12:38:05;;;;;;;;;;;7.20;96.80;;;;;;5094922;28;20058;-49
2022/02/06 12:40:33;;;;;;;;;;;7.20;96.70;;;;;;5094963;28;20056;-49
2022/02/06 12:43:02;;;;;;;;;;;7.30;96.60;;;;;;5095196;28;19924;-49
2022/02/06 12:45:29;;;;;;;;;;;7.20;97.00;;;;;;5095548;28;19981;-48
2022/02/06 12:47:59;;;;;;;;;;;7.10;97.40;;;;;;5094221;28;19977;-48
2022/02/06 12:50:30;;;;;;;;;;;7.00;97.70;;;;;;5095424;28;19924;-48
2022/02/06 12:52:58;;;;;;;;;;;7.20;97.60;;;;;;5095191;28;20404;-49
2022/02/06 12:55:27;;;;;;;;;;;7.30;98.00;;;;;;5095092;28;19931;-48
2022/02/06 12:57:55;;;;;;;;;;;7.30;97.90;;;;;;5094702;28;20462;-48
2022/02/06 13:00:34;;;;;;;;;;;7.20;98.20;;;;;;5111667;22;20011;-54
2022/02/06 13:03:19;;;;;;;;;;;7.20;98.30;;;;;;5077507;28;20297;-53
2022/02/06 13:05:51;;;;;;;;;;;7.10;98.70;;;;;;5079249;28;19924;-52
2022/02/06 13:08:17;;;;;;;;;;;7.20;99.10;;;;;;5090824;28;19924;-54
2022/02/06 13:10:49;;;;;;;;;;;7.10;99.90;;;;;;5090805;28;19928;-53
2022/02/06 13:13:18;;;;;;;;;;;7.10;99.90;;;;;;5073079;28;21555;-53
2022/02/06 13:15:54;;;;;;;;;;;7.10;99.90;;;;;;5072588;28;19924;-52
2022/02/06 13:18:44;;;;;;;;;;;7.00;99.90;;;;;;5071520;28;20320;-54
2022/02/06 13:21:29;;;;;;;;;;;6.90;99.90;;;;;;5074377;28;19983;-54
2022/02/06 13:24:15;;;;;;;;;;;7.00;99.90;;;;;;5092632;28;19924;-53
2022/02/06 13:26:52;;;;;;;;;;;7.00;99.90;;;;;;5090525;28;19931;-54
2022/02/06 13:29:29;;;;;;;;;;;6.90;99.90;;;;;;5083649;28;20014;-53
2022/02/06 13:32:15;;;;;;;;;;;6.90;99.90;;;;;;5071680;28;19924;-52
2022/02/06 13:34:59;;;;;;;;;;;7.00;99.90;;;;;;5072363;28;19925;-53
2022/02/06 13:37:31;;;;;;;;;;;6.80;99.90;;;;;;5071271;28;19946;-53
2022/02/06 13:40:05;;;;;;;;;;;6.80;99.90;;;;;;5071279;28;20350;-53
2022/02/06 13:42:34;;;;;;;;;;;6.80;99.90;;;;;;5090303;28;20316;-54
2022/02/06 13:45:06;;;;;;;;;;;6.70;99.90;;;;;;5091281;28;19924;-53
2022/02/06 13:47:34;;;;;;;;;;;6.70;99.90;;;;;;5090495;28;19971;-54
2022/02/06 13:50:02;;;;;;;;;;;6.70;99.90;;;;;;5071392;28;19986;-53
2022/02/06 13:52:30;;;;;;;;;;;6.70;99.90;;;;;;5072712;28;19928;-53
2022/02/06 13:54:57;;;;;;;;;;;6.80;99.90;;;;;;5071574;28;19982;-51
2022/02/06 13:57:26;;;;;;;;;;;6.70;99.90;;;;;;5091613;28;19977;-53
2022/02/06 13:59:52;;;;;;;;;;;6.70;99.90;;;;;;5057745;28;19925;-53
2022/02/06 14:02:19;;;;;;;;;;;6.60;99.90;;;;;;5059387;28;19998;-53
2022/02/06 14:04:49;;;;;;;;;;;6.60;99.90;;;;;;5074827;28;19993;-53
2022/02/06 14:07:19;;;;;;;;;;;6.60;99.90;;;;;;5070076;28;19936;-53
2022/02/06 14:10:01;;;;;;;;;;;6.70;99.90;;;;;;5069474;28;19947;-53
2022/02/06 14:12:27;;;;;;;;;;;6.80;99.90;;;;;;5070146;28;19976;-52
2022/02/06 14:14:55;;;;;;;;;;;6.70;99.90;;;;;;5070182;28;20078;-52
2022/02/06 14:17:23;;;;;;;;;;;6.70;99.90;;;;;;5069885;28;19924;-52
2022/02/06 14:19:50;;;;;;;;;;;6.60;99.90;;;;;;5069229;28;20487;-53
2022/02/06 14:22:27;;;;;;;;;;;6.70;99.90;;;;;;5070252;28;19924;-53
2022/02/06 14:24:56;;;;;;;;;;;6.80;99.90;;;;;;5069718;28;19924;-53
2022/02/06 14:27:28;;;;;;;;;;;6.70;99.90;;;;;;5069884;28;19990;-53
2022/02/06 14:30:01;;;;;;;;;;;6.70;99.90;;;;;;5065812;28;19969;-53
2022/02/06 14:32:28;;;;;;;;;;;6.70;99.90;;;;;;5069295;28;19952;-53
2022/02/06 14:34:59;;;;;;;;;;;6.70;99.90;;;;;;5069524;28;20290;-53
2022/02/06 14:37:28;;;;;;;;;;;6.70;99.90;;;;;;5069540;28;20339;-53
2022/02/06 14:40:00;;;;;;;;;;;6.80;99.90;;;;;;5069376;28;20024;-54
2022/02/06 14:42:29;;;;;;;;;;;6.80;99.90;;;;;;5070207;28;20032;-53
2022/02/06 14:45:09;;;;;;;;;;;6.90;99.90;;;;;;5066279;28;20016;-53
2022/02/06 14:47:36;;;;;;;;;;;6.80;99.90;;;;;;5069366;28;19932;-53
2022/02/06 14:50:11;;;;;;;;;;;6.80;99.90;;;;;;5068987;28;20376;-54
2022/02/06 14:52:37;;;;;;;;;;;7.00;99.90;;;;;;5069252;28;19986;-54
2022/02/06 14:55:06;;;;;;;;;;;7.00;99.90;;;;;;5069694;28;20289;-52
2022/02/06 14:57:33;;;;;;;;;;;7.10;99.90;;;;;;5069701;28;19985;-52
2022/02/06 15:00:00;;;;;;;;;;;7.00;99.90;;;;;;5068246;28;19936;-53
2022/02/06 15:02:27;;;;;;;;;;;7.00;99.90;;;;;;5069119;28;19959;-53
2022/02/06 15:04:53;;;;;;;;;;;7.00;99.90;;;;;;5069163;28;20435;-54
2022/02/06 15:07:20;;;;;;;;;;;7.20;99.90;;;;;;5069077;28;19924;-53
2022/02/06 15:09:47;;;;;;;;;;;7.20;99.90;;;;;;5068769;28;19929;-54
2022/02/06 15:12:15;;;;;;;;;;;7.20;99.90;;;;;;5068943;28;19986;-54
2022/02/06 15:14:41;;;;;;;;;;;7.20;99.90;;;;;;5068771;28;19944;-54
2022/02/06 15:17:10;;;;;;;;;;;7.20;99.90;;;;;;5068616;28;20030;-53
2022/02/06 15:19:37;;;;;;;;;;;7.00;99.90;;;;;;5067834;28;20012;-54
2022/02/06 15:22:04;;;;;;;;;;;7.00;99.90;;;;;;5068610;28;20043;-53
2022/02/06 15:24:33;;;;;;;;;;;6.90;99.90;;;;;;5068595;28;19936;-53
2022/02/06 15:27:00;;;;;;;;;;;6.80;99.90;;;;;;5068363;28;19937;-53
2022/02/06 15:29:30;;;;;;;;;;;6.90;99.90;;;;;;5068159;28;19929;-53
2022/02/06 15:31:56;;;;;;;;;;;6.90;99.90;;;;;;5068493;28;20274;-53
2022/02/06 15:34:26;;;;;;;;;;;6.90;99.90;;;;;;5067052;28;20396;-53
2022/02/06 15:36:58;;;;;;;;;;;6.90;99.90;;;;;;5068465;28;20275;-54
2022/02/06 15:39:34;;;;;;;;;;;6.60;99.90;;;;;;5068416;28;19924;-53
2022/02/06 15:42:01;;;;;;;;;;;6.30;99.90;;;;;;5068165;28;20359;-54
2022/02/06 15:44:29;;;;;;;;;;;6.20;99.90;;;;;;5068622;28;19986;-53
2022/02/06 15:46:56;;;;;;;;;;;6.10;99.90;;;;;;5077378;28;19928;-53
2022/02/06 15:49:22;;;;;;;;;;;6.20;99.90;;;;;;5088112;28;19940;-54
2022/02/06 15:51:49;;;;;;;;;;;6.10;99.90;;;;;;5088052;28;20312;-53
2022/02/06 15:54:16;;;;;;;;;;;6.20;99.90;;;;;;5089913;28;19924;-52
2022/02/06 15:56:43;;;;;;;;;;;6.50;99.90;;;;;;5075569;28;19924;-54